Time;durP1;ratioP1;P1;durP2;ratioP2;P2;SDS_P1;SDS_P2;PMS_P1;PMS_P2;Temp;Humidity;BMP_temperature;BMP_pressure;BME280_temperature;BME280_humidity;BME280_pressure;Samples;Min_cycle;Max_cycle;Signal;HPM_P1;HPM_P2
2021/05/12 00:00:07;;;;;;;3.80;1.77;;;;;;;16.96;100.00;97528.63;5013265;28;20229;-70
2021/05/12 00:02:34;;;;;;;3.50;1.80;;;;;;;16.93;100.00;97531.00;5012019;28;20210;-71
2021/05/12 00:05:00;;;;;;;2.37;1.83;;;10.70;99.90;;;16.84;100.00;97529.81;5012015;28;20218;-70
2021/05/12 00:07:27;;;;;;;2.20;1.70;;;10.70;99.90;;;16.97;100.00;97527.53;5012495;28;20233;-70
2021/05/12 00:09:53;;;;;;;3.57;1.70;;;10.70;99.90;;;17.02;100.00;97534.91;5012897;28;20214;-70
2021/05/12 00:12:20;;;;;;;3.13;2.00;;;10.70;99.90;;;16.79;100.00;97527.06;5012735;28;20214;-71
2021/05/12 00:14:46;;;;;;;2.07;1.43;;;10.60;99.90;;;17.10;100.00;97539.81;5010583;28;20215;-72
2021/05/12 00:17:18;;;;;;;1.93;1.40;;;10.60;99.90;;;16.90;100.00;97539.59;5012505;28;20235;-71
2021/05/12 00:19:51;;;;;;;2.03;1.50;;;10.60;99.90;;;16.50;100.00;97541.78;5012613;28;20254;-70
2021/05/12 00:22:29;;;;;;;3.40;1.70;;;10.60;99.90;;;16.59;100.00;97541.13;5008594;28;20201;-70
2021/05/12 00:24:56;;;;;;;2.63;1.50;;;10.60;99.90;;;16.71;100.00;97539.09;5011894;28;20254;-70
2021/05/12 00:27:22;;;;;;;1.87;1.53;;;10.50;99.90;;;16.79;100.00;97549.47;5012354;28;20724;-72
2021/05/12 00:29:49;;;;;;;2.57;1.77;;;10.60;99.90;;;16.58;100.00;97546.75;5012715;28;20213;-71
2021/05/12 00:32:16;;;;;;;4.07;1.73;;;10.60;99.90;;;16.50;100.00;97553.38;5012443;28;20577;-71
2021/05/12 00:34:43;;;;;;;2.20;1.40;;;10.60;99.90;;;16.28;100.00;97557.06;5011345;28;20217;-70
2021/05/12 00:37:09;;;;;;;3.80;2.40;;;10.60;99.90;;;16.08;100.00;97557.59;5010301;28;20222;-72
2021/05/12 00:39:36;;;;;;;4.47;2.03;;;10.50;99.90;;;15.64;100.00;97552.28;5010775;28;20230;-71
2021/05/12 00:42:02;;;;;;;4.17;1.60;;;10.60;99.90;;;15.93;100.00;97556.53;5010069;28;20214;-71
2021/05/12 00:44:28;;;;;;;1.67;1.50;;;10.50;99.90;;;16.18;100.00;97555.06;5011360;28;20205;-73
2021/05/12 00:46:55;;;;;;;2.73;1.40;;;10.50;99.90;;;15.67;100.00;97558.00;5008427;28;20280;-72
2021/05/12 00:49:23;;;;;;;4.17;1.70;;;10.50;99.90;;;15.68;100.00;97554.25;5012744;28;20217;-73
2021/05/12 00:51:50;;;;;;;3.80;1.90;;;10.40;99.90;;;15.75;100.00;97557.59;5011104;28;20214;-72
2021/05/12 00:54:16;;;;;;;1.93;1.43;;;10.40;99.90;;;15.47;100.00;97557.66;5012082;28;20766;-72
2021/05/12 00:56:43;;;;;;;4.27;2.00;;;10.40;99.90;;;15.69;100.00;97557.75;5011350;28;20720;-72
2021/05/12 00:59:11;;;;;;;2.60;1.50;;;10.30;99.90;;;15.96;100.00;97553.38;5012180;28;20230;-72
2021/05/12 01:01:38;;;;;;;2.67;1.70;;;10.30;99.90;;;15.79;100.00;97563.28;5011582;28;20212;-72
2021/05/12 01:04:07;;;;;;;3.57;1.50;;;10.30;99.90;;;15.47;100.00;97559.53;5010838;28;20216;-72
2021/05/12 01:06:37;;;;;;;3.77;1.30;;;10.30;99.90;;;15.62;100.00;97562.47;5008704;28;20227;-73
2021/05/12 01:09:10;;;;;;;2.23;1.10;;;10.20;99.90;;;16.03;100.00;97564.75;5011775;28;20289;-72
2021/05/12 01:11:40;;;;;;;2.43;1.07;;;10.20;99.90;;;15.96;100.00;97569.50;5008302;28;20232;-72
2021/05/12 01:14:07;;;;;;;4.57;1.30;;;10.20;99.90;;;15.68;100.00;97569.56;5010713;28;20273;-72
2021/05/12 01:16:33;;;;;;;2.53;1.00;;;10.20;99.90;;;15.80;100.00;97573.81;5011207;28;20325;-70
2021/05/12 01:19:00;;;;;;;1.13;1.00;;;10.10;99.90;;;15.83;100.00;97575.22;5010782;28;20597;-73
2021/05/12 01:21:27;;;;;;;3.13;1.03;;;10.10;99.90;;;15.39;100.00;97582.25;5006771;28;20205;-70
2021/05/12 01:23:54;;;;;;;2.23;1.00;;;10.10;98.70;;;15.91;100.00;97583.69;5011096;28;20209;-70
2021/05/12 01:26:23;;;;;;;1.83;0.90;;;10.10;99.90;;;15.58;100.00;97582.84;5010326;28;20723;-70
2021/05/12 01:28:52;;;;;;;1.90;0.97;;;10.10;99.90;;;15.78;100.00;97583.19;5011530;28;20584;-70
2021/05/12 01:31:21;;;;;;;3.00;1.40;;;10.00;99.90;;;15.69;100.00;97584.66;5011904;28;20230;-71
2021/05/12 01:33:50;;;;;;;3.87;1.10;;;10.00;99.90;;;15.46;100.00;97585.59;5010655;28;20570;-70
2021/05/12 01:36:17;;;;;;;1.63;0.83;;;10.00;99.90;;;15.65;100.00;97576.25;5010645;28;20229;-70
2021/05/12 01:38:47;;;;;;;1.00;0.90;;;10.00;99.90;;;15.63;100.00;97575.69;5010699;28;20200;-70
2021/05/12 01:41:14;;;;;;;3.37;1.47;;;9.90;99.90;;;15.34;100.00;97578.66;5009824;28;20677;-70
2021/05/12 01:43:42;;;;;;;1.43;1.17;;;10.00;99.90;;;15.60;100.00;97586.94;5010441;28;20209;-71
2021/05/12 01:46:09;;;;;;;2.17;1.20;;;9.90;99.90;;;15.64;100.00;97585.38;5007263;28;20710;-70
2021/05/12 01:48:36;;;;;;;2.37;1.30;;;9.90;99.90;;;15.59;100.00;97582.59;5009428;28;20674;-69
2021/05/12 01:51:04;;;;;;;3.27;1.50;;;9.90;99.90;;;15.08;100.00;97592.63;5009616;28;20666;-73
2021/05/12 01:53:30;;;;;;;1.57;1.13;;;10.00;99.90;;;15.36;100.00;97584.59;5007724;28;20203;-69
2021/05/12 01:55:58;;;;;;;2.80;1.30;;;10.00;87.80;;;15.59;100.00;97588.00;5009805;28;20240;-70
2021/05/12 01:58:25;;;;;;;2.67;1.40;;;9.90;99.90;;;15.45;100.00;97588.53;5010311;28;20221;-70
2021/05/12 02:00:54;;;;;;;3.10;1.50;;;9.90;99.90;;;15.37;100.00;97583.53;5009159;28;20339;-71
2021/05/12 02:03:22;;;;;;;3.47;1.73;;;9.90;99.90;;;15.47;100.00;97586.41;5012308;28;20205;-70
2021/05/12 02:05:51;;;;;;;2.53;1.70;;;9.90;99.90;;;15.56;100.00;97587.66;5015110;28;20296;-70
2021/05/12 02:08:21;;;;;;;3.70;2.00;;;9.90;99.90;;;15.13;100.00;97587.34;5011937;28;20729;-70
2021/05/12 02:10:51;;;;;;;5.37;2.20;;;9.90;57.70;;;15.31;100.00;97576.41;5009724;28;20615;-70
2021/05/12 02:13:19;;;;;;;4.47;2.40;;;9.90;58.90;;;15.32;100.00;97578.03;5010386;28;20208;-70
2021/05/12 02:15:46;;;;;;;4.77;2.13;;;9.90;91.20;;;15.75;100.00;97578.31;5008791;28;20240;-70
2021/05/12 02:18:13;;;;;;;6.00;2.13;;;9.90;81.50;;;15.17;100.00;97581.28;5008850;28;20199;-70
2021/05/12 02:20:41;;;;;;;3.07;2.20;;;9.90;29.70;;;14.96;100.00;97578.41;5009398;28;20228;-70
2021/05/12 02:23:11;;;;;;;4.20;2.20;;;9.90;1.00;;;15.40;100.00;97583.88;5003502;28;20216;-70
2021/05/12 02:25:38;;;;;;;4.27;2.30;;;9.90;1.00;;;15.65;100.00;97578.16;5010102;28;20221;-70
2021/05/12 02:28:06;;;;;;;4.77;2.57;;;9.90;29.60;;;15.68;100.00;97570.41;5010502;28;20208;-71
2021/05/12 02:30:34;;;;;;;3.70;2.40;;;9.90;1.00;;;15.33;100.00;97577.84;5010511;28;20230;-72
2021/05/12 02:33:01;;;;;;;4.60;2.40;;;9.90;1.00;;;15.05;100.00;97575.09;5009858;28;20200;-69
2021/05/12 02:35:28;;;;;;;4.03;2.50;;;9.90;1.00;;;15.57;100.00;97567.78;5010681;28;20222;-70
2021/05/12 02:37:55;;;;;;;5.87;2.20;;;9.90;1.00;;;14.92;100.00;97571.88;5008599;28;20236;-69
2021/05/12 02:40:23;;;;;;;4.23;2.13;;;9.90;1.00;;;15.54;100.00;97569.06;5008753;28;20226;-72
2021/05/12 02:42:51;;;;;;;3.60;2.27;;;9.90;1.00;;;14.88;100.00;97578.78;5008647;28;20217;-72
2021/05/12 02:45:19;;;;;;;7.63;2.70;;;9.90;1.00;;;15.61;100.00;97568.94;5009464;28;20206;-73
2021/05/12 02:47:57;;;;;;;4.63;2.77;;;9.90;2.50;;;15.50;100.00;97565.22;5007500;28;20246;-70
2021/05/12 02:50:25;;;;;;;5.67;3.13;;;9.90;1.00;;;15.35;100.00;97556.09;5009925;28;20245;-73
2021/05/12 02:52:52;;;;;;;3.67;2.50;;;9.90;3.10;;;15.41;100.00;97568.56;5009289;28;20229;-72
2021/05/12 02:55:20;;;;;;;7.67;3.10;;;9.90;1.00;;;15.01;100.00;97575.84;5008732;28;20259;-73
2021/05/12 02:57:47;;;;;;;6.03;2.80;;;9.90;1.00;;;15.68;100.00;97567.72;5009920;28;20701;-73
2021/05/12 03:00:17;;;;;;;5.07;2.90;;;9.90;1.00;;;15.48;100.00;97572.75;5010425;28;20228;-73
2021/05/12 03:02:44;;;;;;;5.00;2.87;;;9.90;1.00;;;15.22;100.00;97572.47;5013337;28;20260;-73
2021/05/12 03:05:13;;;;;;;5.60;3.03;;;9.90;1.00;;;15.29;100.00;97573.16;5010815;28;20200;-73
2021/05/12 03:07:40;;;;;;;8.83;3.10;;;9.90;1.00;;;14.92;100.00;97574.56;5010023;28;20721;-70
2021/05/12 03:10:10;;;;;;;4.57;3.27;;;9.90;1.00;;;14.68;100.00;97583.75;5013223;28;20206;-70
2021/05/12 03:12:37;;;;;;;6.87;3.40;;;9.90;1.00;;;15.48;100.00;97574.59;5009838;28;20247;-72
2021/05/12 03:15:06;;;;;;;10.97;3.97;;;9.90;1.00;;;15.45;100.00;97578.59;5013547;28;20580;-72
2021/05/12 03:17:33;;;;;;;6.53;4.07;;;9.90;1.00;;;15.54;100.00;97579.00;5009799;28;20237;-73
2021/05/12 03:19:59;;;;;;;6.70;4.37;;;9.90;4.90;;;15.28;100.00;97587.63;5013485;28;20233;-73
2021/05/12 03:22:27;;;;;;;7.73;3.97;;;9.90;1.00;;;15.26;100.00;97568.25;5010459;28;20556;-73
2021/05/12 03:24:53;;;;;;;6.03;4.20;;;9.90;1.00;;;15.57;100.00;97581.22;5013282;28;20207;-72
2021/05/12 03:27:20;;;;;;;9.20;4.13;;;9.90;1.00;;;15.71;100.00;97571.78;5012130;28;20615;-73
2021/05/12 03:29:46;;;;;;;8.30;4.67;;;9.90;1.00;;;14.96;100.00;97584.63;5011623;28;20247;-73
2021/05/12 03:32:13;;;;;;;8.67;4.80;;;9.90;1.00;;;15.48;100.00;97594.25;5013771;28;20216;-72
2021/05/12 03:34:40;;;;;;;6.60;4.63;;;9.90;1.00;;;15.58;100.00;97594.44;5012440;28;20227;-72
2021/05/12 03:37:07;;;;;;;8.37;5.03;;;10.00;1.00;;;15.06;100.00;97586.69;5012799;28;20230;-72
2021/05/12 03:39:34;;;;;;;10.37;5.20;;;10.00;1.00;;;15.41;100.00;97587.38;5010686;28;20230;-72
2021/05/12 03:42:01;;;;;;;9.10;5.30;;;10.00;1.00;;;15.53;100.00;97580.91;5012593;28;20204;-73
2021/05/12 03:44:27;;;;;;;13.23;6.27;;;10.00;1.00;;;15.34;100.00;97576.78;5012231;28;20691;-73
2021/05/12 03:46:53;;;;;;;9.40;5.60;;;10.00;1.00;;;15.51;100.00;97582.19;5009636;28;20226;-74
2021/05/12 03:49:20;;;;;;;12.10;5.40;;;10.00;1.00;;;15.67;100.00;97579.53;5012983;28;20216;-72
2021/05/12 03:51:46;;;;;;;9.40;5.57;;;10.00;1.00;;;15.36;100.00;97576.53;5012636;28;20244;-73
2021/05/12 03:54:13;;;;;;;12.37;6.57;;;10.00;1.00;;;15.42;100.00;97580.94;5010102;28;20205;-74
2021/05/12 03:56:40;;;;;;;13.60;6.20;;;10.00;1.00;;;15.54;100.00;97582.53;5034363;22;20254;-67
2021/05/12 03:59:07;;;;;;;10.63;5.50;;;10.00;37.60;;;15.91;100.00;97585.56;5009322;28;20249;-66
2021/05/12 04:01:33;;;;;;;10.00;5.80;;;10.00;27.30;;;15.93;100.00;97591.53;5012465;28;20217;-68
2021/05/12 04:04:05;;;;;;;9.50;5.90;;;10.00;1.00;;;15.95;100.00;97582.13;5010266;28;20623;-64
2021/05/12 04:06:32;;;;;;;15.53;6.20;;;10.00;1.00;;;15.64;100.00;97582.69;5009532;28;20213;-68
2021/05/12 04:08:58;;;;;;;11.63;6.30;;;10.00;1.00;;;16.09;100.00;97586.13;5009360;28;20205;-66
2021/05/12 04:11:25;;;;;;;9.93;5.80;;;10.00;4.80;;;15.88;100.00;97588.75;5011917;28;20210;-66
2021/05/12 04:13:52;;;;;;;8.30;5.40;;;10.00;3.10;;;16.16;100.00;97580.59;5006853;28;20307;-66
2021/05/12 04:16:18;;;;;;;10.37;5.60;;;10.00;35.20;;;15.90;100.00;97581.25;5007425;28;20274;-65
2021/05/12 04:18:45;;;;;;;8.60;5.73;;;10.00;21.60;;;15.99;100.00;97577.06;5014829;28;20274;-66
2021/05/12 04:21:11;;;;;;;8.10;5.00;;;10.00;1.00;;;16.20;100.00;97589.78;5011789;28;20201;-66
2021/05/12 04:23:38;;;;;;;10.50;5.47;;;10.00;5.60;;;16.23;100.00;97586.63;5009565;28;20204;-66
2021/05/12 04:26:04;;;;;;;11.50;5.23;;;10.00;37.20;;;16.17;100.00;97582.22;5009054;28;20200;-66
2021/05/12 04:28:31;;;;;;;11.10;5.77;;;9.90;46.40;;;16.03;100.00;97586.31;5007668;28;20229;-65
2021/05/12 04:30:58;;;;;;;8.87;5.80;;;10.00;26.00;;;15.68;100.00;97580.34;5012201;28;20224;-66
2021/05/12 04:33:24;;;;;;;8.90;4.93;;;10.10;1.00;;;15.96;100.00;97589.16;5008839;28;20210;-65
2021/05/12 04:35:51;;;;;;;11.07;5.23;;;10.10;1.00;;;16.11;100.00;97597.47;5010857;28;20534;-65
2021/05/12 04:38:17;;;;;;;8.03;4.83;;;10.10;1.00;;;15.96;100.00;97599.91;5007591;28;20228;-66
2021/05/12 04:40:44;;;;;;;11.37;5.33;;;10.10;6.20;;;16.30;100.00;97595.31;5008516;28;20598;-67
2021/05/12 04:43:11;;;;;;;11.50;5.53;;;10.10;1.00;;;16.08;100.00;97599.84;5010499;28;20280;-67
2021/05/12 04:45:38;;;;;;;9.27;5.13;;;10.10;1.00;;;16.12;100.00;97604.47;5007938;28;20248;-67
2021/05/12 04:48:06;;;;;;;7.40;4.57;;;10.10;1.00;;;16.07;100.00;97608.97;5009234;28;20569;-67
2021/05/12 04:50:34;;;;;;;11.30;5.17;;;10.10;1.00;;;15.79;100.00;97601.78;5011475;28;20206;-67
2021/05/12 04:53:01;;;;;;;10.73;4.77;;;10.20;1.00;;;16.10;100.00;97606.59;5011671;28;20201;-67
2021/05/12 04:55:28;;;;;;;8.93;4.40;;;10.20;1.00;;;16.05;100.00;97611.13;5009720;28;20206;-67
2021/05/12 04:57:55;;;;;;;8.07;4.33;;;10.20;1.00;;;16.14;100.00;97609.63;5008820;28;20242;-66
2021/05/12 05:00:22;;;;;;;8.47;4.10;;;10.20;1.00;;;16.41;100.00;97613.31;5011717;28;20250;-66
2021/05/12 05:02:48;;;;;;;7.87;4.10;;;10.20;1.00;;;15.96;100.00;97621.44;5011754;28;20284;-67
2021/05/12 05:05:17;;;;;;;6.27;4.23;;;10.20;1.00;;;16.44;100.00;97618.19;5007549;28;20254;-67
2021/05/12 05:07:44;;;;;;;7.93;3.93;;;10.20;1.00;;;16.71;100.00;97628.03;5011119;28;20223;-67
2021/05/12 05:10:11;;;;;;;4.63;3.53;;;10.20;1.00;;;16.10;100.00;97630.00;5011179;28;20679;-67
2021/05/12 05:12:38;;;;;;;7.20;3.70;;;10.20;1.00;;;16.23;100.00;97633.22;5010219;28;20210;-66
2021/05/12 05:15:06;;;;;;;6.30;3.43;;;10.20;1.00;;;16.59;100.00;97638.09;5010938;28;20207;-66
2021/05/12 05:17:34;;;;;;;5.47;3.40;;;10.20;1.00;;;16.04;100.00;97636.38;5009761;28;20227;-66
2021/05/12 05:20:02;;;;;;;5.47;3.17;;;10.20;1.00;;;16.12;100.00;97644.06;5006743;28;20221;-66
2021/05/12 05:22:30;;;;;;;6.03;3.13;;;10.10;1.00;;;16.15;100.00;97632.78;5004432;28;20637;-66
2021/05/12 05:24:57;;;;;;;6.30;3.43;;;10.20;1.00;;;16.52;100.00;97637.44;5007837;28;21001;-66
2021/05/12 05:27:24;;;;;;;6.17;3.47;;;10.20;1.00;;;16.61;100.00;97643.25;5010618;28;20231;-66
2021/05/12 05:29:51;;;;;;;6.87;3.47;;;10.20;1.00;;;16.32;100.00;97636.31;5006507;28;20349;-66
2021/05/12 05:32:17;;;;;;;6.40;3.20;;;10.20;1.00;;;16.40;100.00;97636.72;5007927;28;20548;-66
2021/05/12 05:34:44;;;;;;;7.83;2.93;;;10.20;1.00;;;16.55;100.00;97642.34;5008374;28;20206;-67
2021/05/12 05:37:11;;;;;;;10.93;3.30;;;10.30;1.00;;;15.80;100.00;97646.47;5007413;28;20833;-67
2021/05/12 05:39:38;;;;;;;7.07;2.93;;;10.30;99.90;;;16.27;100.00;97650.47;5005867;28;20223;-67
2021/05/12 05:42:06;;;;;;;6.33;3.23;;;10.30;1.00;;;16.21;100.00;97647.97;5009191;28;20206;-66
2021/05/12 05:44:33;;;;;;;12.43;3.03;;;10.30;1.00;;;16.57;100.00;97642.91;5010342;28;20217;-66
2021/05/12 05:47:00;;;;;;;5.77;2.93;;;10.30;1.00;;;16.85;100.00;97644.66;5009961;28;20242;-67
2021/05/12 05:49:27;;;;;;;10.77;2.87;;;10.30;99.90;;;16.65;100.00;97644.38;5004759;28;20716;-67
2021/05/12 05:51:54;;;;;;;10.83;3.53;;;10.40;1.00;;;16.31;100.00;97637.38;5004854;28;20218;-66
2021/05/12 05:54:21;;;;;;;10.80;3.20;;;10.40;1.00;;;16.44;100.00;97650.53;5010521;28;20538;-66
2021/05/12 05:56:49;;;;;;;9.57;3.10;;;10.40;99.90;;;16.15;100.00;97648.94;5011583;28;20218;-64
2021/05/12 05:59:15;;;;;;;3.50;2.10;;;10.40;1.00;;;16.36;100.00;97661.69;5004744;28;20780;-64
2021/05/12 06:01:42;;;;;;;7.90;2.70;;;10.40;1.00;;;16.76;100.00;97651.56;5005823;28;20215;-66
2021/05/12 06:04:08;;;;;;;6.43;3.20;;;10.40;1.00;;;16.39;100.00;97664.72;5009433;28;20222;-64
2021/05/12 06:06:35;;;;;;;7.60;2.20;;;10.40;1.00;;;16.10;100.00;97660.44;5008252;28;20211;-65
2021/05/12 06:09:02;;;;;;;8.43;2.80;;;10.40;99.90;;;16.44;100.00;97664.81;5005508;28;20205;-66
2021/05/12 06:11:29;;;;;;;5.10;2.60;;;10.40;99.90;;;16.61;100.00;97673.69;5007036;28;20213;-71
2021/05/12 06:13:57;;;;;;;3.93;2.40;;;10.40;1.00;;;15.93;100.00;97665.00;5009867;28;20575;-65
2021/05/12 06:16:23;;;;;;;4.23;2.30;;;10.30;99.90;;;16.55;100.00;97669.28;5005235;28;20217;-67
2021/05/12 06:18:51;;;;;;;4.60;2.10;;;10.40;1.00;;;16.34;100.00;97671.88;5008075;28;20213;-70
2021/05/12 06:21:18;;;;;;;3.80;2.33;;;10.40;1.00;;;16.43;100.00;97668.56;5008825;28;20230;-65
2021/05/12 06:23:44;;;;;;;4.80;2.47;;;10.40;1.00;;;16.67;100.00;97669.19;5008145;28;20202;-65
2021/05/12 06:26:16;;;;;;;3.50;2.17;;;10.50;1.00;;;16.84;100.00;97662.72;5008846;28;20207;-67
2021/05/12 06:28:43;;;;;;;4.40;2.30;;;10.50;1.00;;;16.76;100.00;97673.91;5010133;28;20246;-67
2021/05/12 06:31:11;;;;;;;3.60;2.37;;;10.60;1.00;;;16.96;100.00;97663.41;5006702;28;20317;-68
2021/05/12 06:33:40;;;;;;;2.63;1.90;;;10.60;91.20;;;16.40;100.00;97676.31;5009543;28;20208;-72
2021/05/12 06:36:06;;;;;;;3.73;2.33;;;10.70;1.00;;;16.84;100.00;97676.19;5014035;28;20249;-66
2021/05/12 06:38:34;;;;;;;5.93;2.20;;;10.80;1.00;;;16.77;100.00;97669.34;5009486;28;20237;-66
2021/05/12 06:41:00;;;;;;;6.60;2.30;;;10.90;99.90;;;17.16;100.00;97662.84;5009082;28;20725;-65
2021/05/12 06:43:28;;;;;;;4.13;2.17;;;10.90;1.00;;;17.57;96.71;97673.06;5009393;28;20572;-65
2021/05/12 06:45:55;;;;;;;7.50;2.10;;;11.10;1.00;;;17.38;98.14;97663.69;5004206;28;20212;-67
2021/05/12 06:48:22;;;;;;;8.57;2.60;;;11.10;1.00;;;16.81;100.00;97659.72;5013952;28;20222;-65
2021/05/12 06:50:50;;;;;;;2.90;1.80;;;11.10;1.00;;;17.09;97.60;97665.75;5005441;28;20203;-74
2021/05/12 06:53:26;;;;;;;5.13;1.90;;;11.10;1.00;;;17.14;100.00;97668.50;5014811;28;20282;-76
2021/05/12 06:55:53;;;;;;;4.43;2.10;;;11.20;1.00;;;17.17;98.03;97667.19;5012906;28;20190;-73
2021/05/12 06:58:20;;;;;;;4.33;1.87;;;11.20;1.00;;;17.28;97.53;97667.03;5014543;28;20231;-76
2021/05/12 07:00:48;;;;;;;6.80;2.13;;;11.20;10.30;;;17.63;95.60;97664.78;5012040;28;20238;-77
2021/05/12 07:03:15;;;;;;;7.20;2.00;;;11.10;26.10;;;17.62;96.97;97673.13;5009808;28;20569;-77
2021/05/12 07:05:42;;;;;;;14.50;2.83;;;11.30;1.00;;;17.17;98.78;97680.69;5009188;28;20208;-75
2021/05/12 07:08:09;;;;;;;6.67;2.20;;;11.30;1.00;;;16.77;99.99;97677.44;5015045;28;20225;-77
2021/05/12 07:10:36;;;;;;;4.33;1.33;;;11.10;1.00;;;17.33;96.78;97685.19;5015342;28;20303;-76
2021/05/12 07:13:02;;;;;;;6.10;2.20;;;11.20;1.00;;;16.70;100.00;97674.06;5009703;28;20207;-67
2021/05/12 07:15:29;;;;;;;8.00;2.07;;;11.20;1.00;;;16.97;97.54;97680.41;5013536;28;20562;-66
2021/05/12 07:17:55;;;;;;;7.83;1.90;;;11.20;1.00;;;16.44;100.00;97674.75;5014727;28;20227;-64
2021/05/12 07:20:22;;;;;;;7.50;2.00;;;11.20;1.00;;;17.26;94.56;97682.69;5018527;28;20220;-76
2021/05/12 07:22:50;;;;;;;7.60;2.23;;;11.20;99.90;;;17.10;95.85;97685.41;5017485;28;20805;-75
2021/05/12 07:25:17;;;;;;;4.10;1.70;;;11.20;99.90;;;17.02;97.09;97681.28;5009913;28;20208;-77
2021/05/12 07:27:43;;;;;;;5.60;1.90;;;11.20;1.00;;;17.35;96.88;97677.66;5013677;28;20236;-77
2021/05/12 07:30:11;;;;;;;3.97;1.80;;;11.30;1.00;;;17.17;93.77;97681.47;5008533;28;20209;-78
2021/05/12 07:32:37;;;;;;;3.60;1.53;;;11.30;99.90;;;17.01;96.16;97678.81;5015115;28;20207;-76
2021/05/12 07:35:07;;;;;;;3.33;1.60;;;11.30;99.90;;;16.70;97.53;97680.28;5010507;28;20209;-76
2021/05/12 07:37:33;;;;;;;2.03;1.50;;;11.20;99.90;;;16.50;98.08;97676.47;5007192;28;20311;-73
2021/05/12 07:40:01;;;;;;;5.73;1.70;;;11.00;99.90;;;16.49;99.34;97672.16;5010835;28;20239;-75
2021/05/12 07:42:27;;;;;;;3.20;1.60;;;11.00;1.00;;;16.18;100.00;97664.63;5009225;28;20210;-73
2021/05/12 07:44:54;;;;;;;4.40;1.60;;;10.90;1.00;;;16.58;100.00;97666.13;5009170;28;20221;-73
2021/05/12 07:47:20;;;;;;;3.77;1.77;;;10.90;1.00;;;16.64;100.00;97658.91;5011562;28;20310;-72
2021/05/12 07:49:47;;;;;;;5.70;2.00;;;10.90;1.00;;;16.36;100.00;97654.41;5007822;28;20212;-69
2021/05/12 07:52:14;;;;;;;5.63;1.70;;;10.90;1.00;;;16.63;99.71;97657.28;5002603;28;20219;-69
2021/05/12 07:54:41;;;;;;;7.80;1.60;;;10.90;1.00;;;17.40;94.01;97656.16;5006774;28;20212;-72
2021/05/12 07:57:09;;;;;;;6.67;1.70;;;10.90;1.00;;;16.43;100.00;97652.41;5007704;28;20235;-69
2021/05/12 07:59:36;;;;;;;4.20;1.83;;;10.90;1.00;;;15.71;100.00;97650.59;5010825;28;20563;-69
2021/05/12 08:02:04;;;;;;;4.37;1.73;;;10.90;1.00;;;15.94;100.00;97650.50;5005052;28;20200;-68
2021/05/12 08:04:31;;;;;;;7.70;2.00;;;10.80;1.00;;;15.75;100.00;97659.84;5006974;28;20214;-73
2021/05/12 08:06:58;;;;;;;3.93;1.60;;;10.80;1.00;;;16.28;100.00;97646.75;5010256;28;20229;-67
2021/05/12 08:09:25;;;;;;;3.53;2.00;;;10.80;1.00;;;16.27;100.00;97653.19;5009531;28;20239;-67
2021/05/12 08:11:52;;;;;;;2.57;1.50;;;10.80;99.90;;;16.89;98.79;97649.31;5011332;28;20207;-67
2021/05/12 08:14:19;;;;;;;2.03;1.60;;;10.90;99.90;;;16.52;98.81;97655.50;5010038;28;20211;-67
2021/05/12 08:16:46;;;;;;;5.33;1.80;;;11.00;1.00;;;16.97;99.29;97662.34;5011685;28;20223;-67
2021/05/12 08:19:12;;;;;;;5.17;1.63;;;11.00;99.90;;;17.21;94.20;97665.59;5012684;28;20219;-67
2021/05/12 08:21:39;;;;;;;9.43;1.83;;;11.00;1.00;;;16.58;99.18;97659.91;5007098;28;20952;-72
2021/05/12 08:24:07;;;;;;;5.77;1.60;;;11.00;1.00;;;16.51;100.00;97662.75;5009956;28;20572;-70
2021/05/12 08:26:34;;;;;;;10.93;2.03;;;11.00;1.00;;;16.26;100.00;97666.91;5012415;28;20214;-70
2021/05/12 08:29:02;;;;;;;7.77;1.87;;;11.00;99.90;;;16.82;99.00;97664.81;5010482;28;20283;-69
2021/05/12 08:31:29;;;;;;;3.07;1.70;;;11.00;1.00;;;16.85;100.00;97660.81;5008961;28;20282;-75
2021/05/12 08:33:56;;;;;;;4.03;2.03;;;11.00;99.90;;;16.37;100.00;97666.00;5008948;28;20232;-70
2021/05/12 08:36:22;;;;;;;3.83;2.00;;;11.00;1.00;;;16.96;99.49;97658.00;5010445;28;20215;-70
2021/05/12 08:38:49;;;;;;;3.13;2.00;;;10.90;99.90;;;17.01;100.00;97660.78;5010863;28;20203;-68
2021/05/12 08:41:18;;;;;;;4.00;1.50;;;11.10;1.00;;;16.70;100.00;97664.13;5010594;28;20239;-71
2021/05/12 08:43:45;;;;;;;4.03;1.77;;;11.10;1.00;;;16.98;99.17;97655.06;5008626;28;20221;-70
2021/05/12 08:46:14;;;;;;;6.60;2.23;;;11.10;92.30;;;17.26;97.44;97665.66;5009743;28;20204;-71
2021/05/12 08:48:43;;;;;;;4.37;2.10;;;11.30;1.00;;;17.34;95.21;97667.94;5005806;28;20809;-70
2021/05/12 08:51:11;;;;;;;2.70;1.60;;;11.30;99.90;;;17.60;90.71;97664.50;5006738;28;20546;-71
2021/05/12 08:53:38;;;;;;;2.33;1.20;;;11.50;99.90;;;17.83;92.38;97662.31;5009923;28;20208;-74
2021/05/12 08:56:06;;;;;;;4.10;1.40;;;11.70;99.90;;;17.03;94.66;97664.03;5008958;28;20207;-71
2021/05/12 08:58:33;;;;;;;6.00;1.67;;;11.70;54.60;;;17.76;91.22;97661.69;5007396;28;20240;-78
2021/05/12 09:01:00;;;;;;;4.53;1.90;;;11.70;99.90;;;17.87;89.41;97665.31;5008346;28;20287;-67
2021/05/12 09:03:27;;;;;;;2.53;1.57;;;11.80;26.80;;;18.01;85.94;97661.13;5010604;28;20665;-69
2021/05/12 09:05:57;;;;;;;4.20;1.57;;;11.90;1.00;;;17.74;87.77;97671.91;5009500;28;20600;-67
2021/05/12 09:08:26;;;;;;;4.90;1.50;;;11.90;1.00;;;17.59;87.26;97663.66;5007853;28;20293;-67
2021/05/12 09:10:53;;;;;;;2.67;1.50;;;11.90;1.00;;;18.30;85.01;97665.97;5008639;28;20213;-70
2021/05/12 09:13:33;;;;;;;6.67;1.90;;;12.00;1.00;;;18.19;84.82;97650.75;5009037;28;20298;-71
2021/05/12 09:16:22;;;;;;;4.40;1.43;;;12.00;1.00;;;18.30;83.40;97655.16;5006732;28;20233;-69
2021/05/12 09:18:52;;;;;;;4.87;1.53;;;12.10;1.00;;;18.12;83.53;97660.97;5009099;28;20567;-69
2021/05/12 09:21:19;;;;;;;2.40;1.43;;;12.20;1.00;;;18.10;84.15;97649.63;5009147;28;20245;-68
2021/05/12 09:23:46;;;;;;;6.57;1.13;;;12.20;1.00;;;17.74;84.17;97652.22;5002247;28;20210;-70
2021/05/12 09:26:15;;;;;;;2.77;1.30;;;12.20;1.00;;;18.07;84.00;97654.69;5008113;28;20209;-69
2021/05/12 09:28:43;;;;;;;3.20;1.57;;;12.20;1.00;;;17.99;82.75;97655.19;5008300;28;20300;-70
2021/05/12 09:31:13;;;;;;;3.60;1.43;;;12.20;1.00;;;17.72;86.74;97651.66;5007669;28;20204;-68
2021/05/12 09:33:42;;;;;;;3.37;1.40;;;12.00;1.00;;;17.78;86.04;97659.56;5005366;28;20230;-69
2021/05/12 09:36:09;;;;;;;6.17;1.57;;;12.00;1.00;;;18.37;82.07;97661.22;5005707;28;20331;-69
2021/05/12 09:38:38;;;;;;;4.50;1.30;;;12.20;1.00;;;17.51;86.87;97661.44;5004683;28;20650;-68
2021/05/12 09:41:11;;;;;;;1.80;1.30;;;12.20;1.00;;;17.54;86.50;97665.50;5008512;28;20234;-68
2021/05/12 09:43:46;;;;;;;5.27;1.30;;;12.10;1.00;;;18.99;78.16;97669.47;5005197;28;20315;-69
2021/05/12 09:46:21;;;;;;;4.87;1.50;;;12.30;1.00;;;18.61;79.87;97662.47;5007938;28;20205;-69
2021/05/12 09:49:09;;;;;;;2.93;1.50;;;12.50;1.00;;;18.89;78.12;97664.81;5009787;28;20686;-68
2021/05/12 09:51:39;;;;;;;2.80;1.60;;;12.70;1.00;;;19.14;77.43;97673.06;5002978;28;20270;-69
2021/05/12 09:54:11;;;;;;;3.60;1.50;;;12.90;1.00;;;18.82;77.97;97666.13;5006601;28;20207;-69
2021/05/12 09:56:48;;;;;;;2.80;1.40;;;12.80;1.00;;;18.90;76.45;97671.84;5008303;28;20257;-68
2021/05/12 09:59:19;;;;;;;3.93;1.50;;;12.80;1.00;;;18.96;76.39;97664.59;5007672;28;20238;-70
2021/05/12 10:01:49;;;;;;;2.33;1.33;;;12.80;1.00;;;18.70;78.49;97670.91;5006443;28;20209;-69
2021/05/12 10:04:35;;;;;;;2.80;1.20;;;12.80;1.00;;;18.95;76.06;97663.75;5005941;28;20224;-69
2021/05/12 10:07:14;;;;;;;4.00;1.80;;;12.80;1.00;;;17.91;81.70;97648.34;5008800;28;20226;-71
2021/05/12 10:09:43;;;;;;;6.17;2.37;;;12.70;1.00;;;18.43;79.72;97648.53;5010631;28;20201;-70
2021/05/12 10:12:13;;;;;;;3.97;1.60;;;12.60;1.00;;;18.46;81.21;97648.03;5009035;28;20207;-71
2021/05/12 10:14:42;;;;;;;4.30;1.70;;;12.60;1.00;;;18.71;77.75;97659.84;5006843;28;20213;-67
2021/05/12 10:17:12;;;;;;;3.10;1.40;;;12.70;1.00;;;18.44;79.80;97645.56;5007501;28;20229;-71
2021/05/12 10:19:42;;;;;;;2.63;1.47;;;12.60;1.00;;;18.36;79.42;97637.16;5006791;28;20235;-69
2021/05/12 10:22:11;;;;;;;2.57;1.50;;;12.60;1.00;;;17.92;80.04;97641.88;5009154;28;20208;-68